sensor_id;sensor_type;location;lat;lon;timestamp;P1;durP1;ratioP1;P2;durP2;ratioP2
67528;SDS011;54366;51.980;5.856;2023-05-14T00:00:12;7.03;;;6.20;;
67528;SDS011;54366;51.980;5.856;2023-05-14T00:02:44;9.23;;;7.72;;
67528;SDS011;54366;51.980;5.856;2023-05-14T00:05:11;7.20;;;6.32;;
67528;SDS011;54366;51.980;5.856;2023-05-14T00:07:43;7.50;;;6.68;;
67528;SDS011;54366;51.980;5.856;2023-05-14T00:10:16;6.50;;;5.88;;
67528;SDS011;54366;51.980;5.856;2023-05-14T00:12:51;8.80;;;6.75;;
67528;SDS011;54366;51.980;5.856;2023-05-14T00:15:24;9.05;;;8.10;;
67528;SDS011;54366;51.980;5.856;2023-05-14T00:18:11;8.43;;;7.50;;
67528;SDS011;54366;51.980;5.856;2023-05-14T00:20:43;7.88;;;7.18;;
67528;SDS011;54366;51.980;5.856;2023-05-14T00:23:10;8.55;;;7.57;;
67528;SDS011;54366;51.980;5.856;2023-05-14T00:25:42;7.85;;;6.78;;
67528;SDS011;54366;51.980;5.856;2023-05-14T00:28:15;6.57;;;5.97;;
67528;SDS011;54366;51.980;5.856;2023-05-14T00:30:49;8.57;;;7.78;;
67528;SDS011;54366;51.980;5.856;2023-05-14T00:33:21;6.68;;;6.07;;
67528;SDS011;54366;51.980;5.856;2023-05-14T00:35:54;7.05;;;6.43;;
67528;SDS011;54366;51.980;5.856;2023-05-14T00:38:27;8.10;;;7.28;;
67528;SDS011;54366;51.980;5.856;2023-05-14T00:41:00;7.43;;;6.63;;
67528;SDS011;54366;51.980;5.856;2023-05-14T00:43:33;7.30;;;6.13;;
67528;SDS011;54366;51.980;5.856;2023-05-14T00:46:07;8.07;;;7.28;;
67528;SDS011;54366;51.980;5.856;2023-05-14T00:48:39;7.53;;;6.55;;
67528;SDS011;54366;51.980;5.856;2023-05-14T00:51:12;7.65;;;6.85;;
67528;SDS011;54366;51.980;5.856;2023-05-14T00:53:45;8.27;;;7.45;;
67528;SDS011;54366;51.980;5.856;2023-05-14T00:56:19;7.60;;;6.90;;
67528;SDS011;54366;51.980;5.856;2023-05-14T00:58:46;6.60;;;6.13;;
67528;SDS011;54366;51.980;5.856;2023-05-14T01:01:19;7.10;;;6.43;;
67528;SDS011;54366;51.980;5.856;2023-05-14T01:03:53;7.20;;;6.53;;
67528;SDS011;54366;51.980;5.856;2023-05-14T01:13:07;6.43;;;5.82;;
67528;SDS011;54366;51.980;5.856;2023-05-14T01:15:52;8.75;;;7.68;;
67528;SDS011;54366;51.980;5.856;2023-05-14T01:18:31;7.90;;;7.10;;
67528;SDS011;54366;51.980;5.856;2023-05-14T01:21:04;7.50;;;6.80;;
67528;SDS011;54366;51.980;5.856;2023-05-14T01:23:49;7.30;;;6.60;;
67528;SDS011;54366;51.980;5.856;2023-05-14T01:26:22;8.43;;;7.50;;
67528;SDS011;54366;51.980;5.856;2023-05-14T01:29:16;7.38;;;6.68;;
67528;SDS011;54366;51.980;5.856;2023-05-14T01:31:52;10.05;;;8.45;;
67528;SDS011;54366;51.980;5.856;2023-05-14T01:34:28;7.50;;;6.80;;
67528;SDS011;54366;51.980;5.856;2023-05-14T01:36:56;8.23;;;7.43;;
67528;SDS011;54366;51.980;5.856;2023-05-14T01:39:29;8.43;;;7.63;;
67528;SDS011;54366;51.980;5.856;2023-05-14T01:42:04;9.25;;;7.70;;
67528;SDS011;54366;51.980;5.856;2023-05-14T01:44:38;7.75;;;7.05;;
67528;SDS011;54366;51.980;5.856;2023-05-14T01:47:11;8.05;;;6.72;;
67528;SDS011;54366;51.980;5.856;2023-05-14T01:49:38;9.82;;;8.82;;
67528;SDS011;54366;51.980;5.856;2023-05-14T01:52:10;9.57;;;8.63;;
67528;SDS011;54366;51.980;5.856;2023-05-14T01:54:43;9.02;;;8.18;;
67528;SDS011;54366;51.980;5.856;2023-05-14T01:57:16;11.43;;;8.77;;
67528;SDS011;54366;51.980;5.856;2023-05-14T01:59:43;8.40;;;7.60;;
67528;SDS011;54366;51.980;5.856;2023-05-14T02:02:15;9.10;;;8.20;;
67528;SDS011;54366;51.980;5.856;2023-05-14T02:04:49;10.60;;;7.97;;
67528;SDS011;54366;51.980;5.856;2023-05-14T02:07:22;10.45;;;8.52;;
67528;SDS011;54366;51.980;5.856;2023-05-14T02:09:55;9.45;;;8.55;;
67528;SDS011;54366;51.980;5.856;2023-05-14T02:12:29;7.97;;;7.25;;
67528;SDS011;54366;51.980;5.856;2023-05-14T02:14:55;8.77;;;7.82;;
67528;SDS011;54366;51.980;5.856;2023-05-14T02:17:41;9.38;;;8.10;;
67528;SDS011;54366;51.980;5.856;2023-05-14T02:20:14;8.38;;;7.57;;
67528;SDS011;54366;51.980;5.856;2023-05-14T02:22:46;9.45;;;8.60;;
67528;SDS011;54366;51.980;5.856;2023-05-14T02:25:20;9.63;;;8.57;;
67528;SDS011;54366;51.980;5.856;2023-05-14T02:27:52;9.60;;;8.32;;
67528;SDS011;54366;51.980;5.856;2023-05-14T02:30:25;10.38;;;9.30;;
67528;SDS011;54366;51.980;5.856;2023-05-14T02:32:58;8.65;;;7.75;;
67528;SDS011;54366;51.980;5.856;2023-05-14T02:35:31;7.30;;;6.60;;
67528;SDS011;54366;51.980;5.856;2023-05-14T02:38:04;8.15;;;7.35;;
67528;SDS011;54366;51.980;5.856;2023-05-14T02:40:31;13.07;;;9.30;;
67528;SDS011;54366;51.980;5.856;2023-05-14T02:43:03;9.98;;;8.43;;
67528;SDS011;54366;51.980;5.856;2023-05-14T02:45:36;9.85;;;8.68;;
67528;SDS011;54366;51.980;5.856;2023-05-14T02:48:03;7.45;;;6.47;;
67528;SDS011;54366;51.980;5.856;2023-05-14T02:50:35;8.55;;;7.68;;
67528;SDS011;54366;51.980;5.856;2023-05-14T02:53:08;7.32;;;6.63;;
67528;SDS011;54366;51.980;5.856;2023-05-14T02:55:41;7.45;;;6.57;;
67528;SDS011;54366;51.980;5.856;2023-05-14T02:58:14;7.53;;;6.82;;
67528;SDS011;54366;51.980;5.856;2023-05-14T03:00:47;8.95;;;8.05;;
67528;SDS011;54366;51.980;5.856;2023-05-14T03:03:20;9.93;;;8.57;;
67528;SDS011;54366;51.980;5.856;2023-05-14T03:05:53;9.98;;;8.90;;
67528;SDS011;54366;51.980;5.856;2023-05-14T03:08:26;9.40;;;8.35;;
67528;SDS011;54366;51.980;5.856;2023-05-14T03:10:59;8.63;;;7.82;;
67528;SDS011;54366;51.980;5.856;2023-05-14T03:13:32;10.63;;;9.20;;
67528;SDS011;54366;51.980;5.856;2023-05-14T03:16:12;12.73;;;10.05;;
67528;SDS011;54366;51.980;5.856;2023-05-14T03:18:51;11.15;;;9.95;;
67528;SDS011;54366;51.980;5.856;2023-05-14T03:21:24;10.45;;;9.18;;
67528;SDS011;54366;51.980;5.856;2023-05-14T03:23:52;11.30;;;9.25;;
67528;SDS011;54366;51.980;5.856;2023-05-14T03:26:25;10.93;;;9.82;;
67528;SDS011;54366;51.980;5.856;2023-05-14T03:28:51;11.55;;;10.27;;
67528;SDS011;54366;51.980;5.856;2023-05-14T03:31:24;10.55;;;9.55;;
67528;SDS011;54366;51.980;5.856;2023-05-14T03:36:32;11.65;;;10.55;;
67528;SDS011;54366;51.980;5.856;2023-05-14T03:39:06;9.32;;;8.52;;
67528;SDS011;54366;51.980;5.856;2023-05-14T03:41:40;12.77;;;10.90;;
67528;SDS011;54366;51.980;5.856;2023-05-14T03:44:13;12.05;;;10.38;;
67528;SDS011;54366;51.980;5.856;2023-05-14T03:46:46;9.27;;;8.48;;
67528;SDS011;54366;51.980;5.856;2023-05-14T03:49:20;10.40;;;9.40;;
67528;SDS011;54366;51.980;5.856;2023-05-14T03:51:46;10.98;;;9.88;;
67528;SDS011;54366;51.980;5.856;2023-05-14T03:54:19;12.50;;;10.82;;
67528;SDS011;54366;51.980;5.856;2023-05-14T03:56:52;11.70;;;10.20;;
67528;SDS011;54366;51.980;5.856;2023-05-14T03:59:26;12.02;;;10.63;;
67528;SDS011;54366;51.980;5.856;2023-05-14T04:01:52;10.13;;;9.15;;
67528;SDS011;54366;51.980;5.856;2023-05-14T04:04:25;11.48;;;10.23;;
67528;SDS011;54366;51.980;5.856;2023-05-14T04:06:52;11.52;;;10.32;;
67528;SDS011;54366;51.980;5.856;2023-05-14T04:09:27;11.65;;;10.45;;
67528;SDS011;54366;51.980;5.856;2023-05-14T04:11:59;10.00;;;8.70;;
67528;SDS011;54366;51.980;5.856;2023-05-14T04:14:33;9.68;;;8.73;;
67528;SDS011;54366;51.980;5.856;2023-05-14T04:17:13;9.10;;;8.20;;
67528;SDS011;54366;51.980;5.856;2023-05-14T04:19:47;9.52;;;8.60;;
67528;SDS011;54366;51.980;5.856;2023-05-14T04:22:19;11.75;;;9.65;;
67528;SDS011;54366;51.980;5.856;2023-05-14T04:24:52;13.20;;;10.27;;
67528;SDS011;54366;51.980;5.856;2023-05-14T04:27:25;11.70;;;10.50;;
67528;SDS011;54366;51.980;5.856;2023-05-14T04:29:53;12.50;;;10.45;;
67528;SDS011;54366;51.980;5.856;2023-05-14T04:32:25;12.40;;;11.18;;
67528;SDS011;54366;51.980;5.856;2023-05-14T04:34:58;11.48;;;10.23;;
67528;SDS011;54366;51.980;5.856;2023-05-14T04:37:31;13.27;;;10.48;;
67528;SDS011;54366;51.980;5.856;2023-05-14T04:39:58;12.38;;;10.25;;
67528;SDS011;54366;51.980;5.856;2023-05-14T04:42:31;10.63;;;9.35;;
67528;SDS011;54366;51.980;5.856;2023-05-14T04:45:05;12.23;;;10.85;;
67528;SDS011;54366;51.980;5.856;2023-05-14T04:47:31;10.25;;;9.13;;
67528;SDS011;54366;51.980;5.856;2023-05-14T04:50:05;10.38;;;9.10;;
67528;SDS011;54366;51.980;5.856;2023-05-14T04:52:39;11.55;;;10.38;;
67528;SDS011;54366;51.980;5.856;2023-05-14T04:55:12;10.90;;;9.73;;
67528;SDS011;54366;51.980;5.856;2023-05-14T04:57:45;9.82;;;8.82;;
67528;SDS011;54366;51.980;5.856;2023-05-14T05:00:18;11.98;;;9.70;;
67528;SDS011;54366;51.980;5.856;2023-05-14T05:02:52;11.27;;;9.30;;
67528;SDS011;54366;51.980;5.856;2023-05-14T05:05:25;11.18;;;10.02;;
67528;SDS011;54366;51.980;5.856;2023-05-14T05:07:58;11.30;;;10.20;;
67528;SDS011;54366;51.980;5.856;2023-05-14T05:10:32;11.10;;;9.75;;
67528;SDS011;54366;51.980;5.856;2023-05-14T05:13:04;10.02;;;9.02;;
67528;SDS011;54366;51.980;5.856;2023-05-14T05:15:37;13.80;;;12.20;;
67528;SDS011;54366;51.980;5.856;2023-05-14T05:18:11;10.95;;;9.95;;
67528;SDS011;54366;51.980;5.856;2023-05-14T05:20:50;11.20;;;10.00;;
67528;SDS011;54366;51.980;5.856;2023-05-14T05:23:24;11.45;;;10.25;;
67528;SDS011;54366;51.980;5.856;2023-05-14T05:25:50;14.25;;;11.40;;
67528;SDS011;54366;51.980;5.856;2023-05-14T05:28:22;14.88;;;11.75;;
67528;SDS011;54366;51.980;5.856;2023-05-14T05:30:55;12.95;;;11.07;;
67528;SDS011;54366;51.980;5.856;2023-05-14T05:33:28;11.85;;;10.65;;
67528;SDS011;54366;51.980;5.856;2023-05-14T05:36:01;11.68;;;10.45;;
67528;SDS011;54366;51.980;5.856;2023-05-14T05:38:34;11.35;;;10.15;;
67528;SDS011;54366;51.980;5.856;2023-05-14T05:41:07;12.48;;;10.23;;
67528;SDS011;54366;51.980;5.856;2023-05-14T05:43:40;10.07;;;9.02;;
67528;SDS011;54366;51.980;5.856;2023-05-14T05:46:13;11.90;;;10.70;;
67528;SDS011;54366;51.980;5.856;2023-05-14T05:48:46;12.57;;;11.15;;
67528;SDS011;54366;51.980;5.856;2023-05-14T05:51:19;10.52;;;9.20;;
67528;SDS011;54366;51.980;5.856;2023-05-14T05:53:52;12.55;;;10.48;;
67528;SDS011;54366;51.980;5.856;2023-05-14T05:56:25;13.93;;;12.55;;
67528;SDS011;54366;51.980;5.856;2023-05-14T05:58:58;13.98;;;12.40;;
67528;SDS011;54366;51.980;5.856;2023-05-14T06:01:25;14.18;;;12.77;;
67528;SDS011;54366;51.980;5.856;2023-05-14T06:03:57;13.82;;;12.00;;
67528;SDS011;54366;51.980;5.856;2023-05-14T06:06:31;12.90;;;10.68;;
67528;SDS011;54366;51.980;5.856;2023-05-14T06:08:57;12.13;;;10.88;;
67528;SDS011;54366;51.980;5.856;2023-05-14T06:11:29;10.82;;;9.73;;
67528;SDS011;54366;51.980;5.856;2023-05-14T06:14:02;12.55;;;11.07;;
67528;SDS011;54366;51.980;5.856;2023-05-14T06:16:42;14.90;;;11.95;;
67528;SDS011;54366;51.980;5.856;2023-05-14T06:19:14;10.30;;;9.30;;
67528;SDS011;54366;51.980;5.856;2023-05-14T06:21:47;9.95;;;8.93;;
67528;SDS011;54366;51.980;5.856;2023-05-14T06:24:20;11.48;;;10.13;;
67528;SDS011;54366;51.980;5.856;2023-05-14T06:26:53;12.00;;;10.75;;
67528;SDS011;54366;51.980;5.856;2023-05-14T06:29:20;12.75;;;11.40;;
67528;SDS011;54366;51.980;5.856;2023-05-14T06:31:52;11.65;;;10.45;;
67528;SDS011;54366;51.980;5.856;2023-05-14T06:34:25;10.07;;;8.35;;
67528;SDS011;54366;51.980;5.856;2023-05-14T06:36:52;10.00;;;9.00;;
67528;SDS011;54366;51.980;5.856;2023-05-14T06:39:24;11.77;;;9.15;;
67528;SDS011;54366;51.980;5.856;2023-05-14T06:41:58;9.68;;;8.18;;
67528;SDS011;54366;51.980;5.856;2023-05-14T06:44:31;12.95;;;11.15;;
67528;SDS011;54366;51.980;5.856;2023-05-14T06:47:04;10.85;;;9.48;;
67528;SDS011;54366;51.980;5.856;2023-05-14T06:49:39;9.68;;;8.68;;
67528;SDS011;54366;51.980;5.856;2023-05-14T06:52:12;10.32;;;9.32;;
67528;SDS011;54366;51.980;5.856;2023-05-14T06:54:39;9.57;;;8.27;;
67528;SDS011;54366;51.980;5.856;2023-05-14T06:57:11;10.85;;;9.38;;
67528;SDS011;54366;51.980;5.856;2023-05-14T06:59:44;11.93;;;9.82;;
67528;SDS011;54366;51.980;5.856;2023-05-14T07:02:17;8.63;;;7.72;;
67528;SDS011;54366;51.980;5.856;2023-05-14T07:04:50;8.57;;;7.68;;
67528;SDS011;54366;51.980;5.856;2023-05-14T07:07:24;10.15;;;8.65;;
67528;SDS011;54366;51.980;5.856;2023-05-14T07:09:56;10.07;;;9.07;;
67528;SDS011;54366;51.980;5.856;2023-05-14T07:12:29;8.13;;;7.10;;
67528;SDS011;54366;51.980;5.856;2023-05-14T07:15:03;10.85;;;9.00;;
67528;SDS011;54366;51.980;5.856;2023-05-14T07:17:30;14.45;;;10.60;;
67528;SDS011;54366;51.980;5.856;2023-05-14T07:20:03;10.40;;;8.68;;
67528;SDS011;54366;51.980;5.856;2023-05-14T07:22:43;11.02;;;9.63;;
67528;SDS011;54366;51.980;5.856;2023-05-14T07:25:15;10.35;;;8.48;;
67528;SDS011;54366;51.980;5.856;2023-05-14T07:27:48;10.65;;;9.00;;
67528;SDS011;54366;51.980;5.856;2023-05-14T07:30:22;9.55;;;7.40;;
67528;SDS011;54366;51.980;5.856;2023-05-14T07:32:54;8.48;;;7.63;;
67528;SDS011;54366;51.980;5.856;2023-05-14T07:35:27;7.53;;;6.80;;
67528;SDS011;54366;51.980;5.856;2023-05-14T07:38:00;8.45;;;7.55;;
67528;SDS011;54366;51.980;5.856;2023-05-14T07:40:34;8.23;;;6.05;;
67528;SDS011;54366;51.980;5.856;2023-05-14T07:43:06;8.65;;;7.75;;
67528;SDS011;54366;51.980;5.856;2023-05-14T07:45:40;9.57;;;7.35;;
67528;SDS011;54366;51.980;5.856;2023-05-14T07:48:12;7.95;;;7.15;;
67528;SDS011;54366;51.980;5.856;2023-05-14T07:50:47;9.15;;;8.25;;
67528;SDS011;54366;51.980;5.856;2023-05-14T07:53:19;8.32;;;7.53;;
67528;SDS011;54366;51.980;5.856;2023-05-14T07:55:53;9.18;;;8.25;;
67528;SDS011;54366;51.980;5.856;2023-05-14T07:58:19;9.82;;;6.90;;
67528;SDS011;54366;51.980;5.856;2023-05-14T08:00:52;6.88;;;6.18;;
67528;SDS011;54366;51.980;5.856;2023-05-14T08:03:25;6.82;;;5.88;;
67528;SDS011;54366;51.980;5.856;2023-05-14T08:05:58;6.28;;;5.68;;
67528;SDS011;54366;51.980;5.856;2023-05-14T08:08:30;6.50;;;5.70;;
67528;SDS011;54366;51.980;5.856;2023-05-14T08:11:04;7.18;;;6.28;;
67528;SDS011;54366;51.980;5.856;2023-05-14T08:13:37;7.55;;;5.88;;
67528;SDS011;54366;51.980;5.856;2023-05-14T08:16:19;5.72;;;5.10;;
67528;SDS011;54366;51.980;5.856;2023-05-14T08:18:59;6.18;;;5.32;;
67528;SDS011;54366;51.980;5.856;2023-05-14T08:21:31;5.60;;;5.03;;
67528;SDS011;54366;51.980;5.856;2023-05-14T08:24:05;6.38;;;4.90;;
67528;SDS011;54366;51.980;5.856;2023-05-14T08:26:37;6.65;;;5.13;;
67528;SDS011;54366;51.980;5.856;2023-05-14T08:29:11;4.70;;;4.30;;
67528;SDS011;54366;51.980;5.856;2023-05-14T08:31:44;5.95;;;4.50;;
67528;SDS011;54366;51.980;5.856;2023-05-14T08:34:10;5.07;;;4.55;;
67528;SDS011;54366;51.980;5.856;2023-05-14T08:36:43;5.63;;;4.00;;
67528;SDS011;54366;51.980;5.856;2023-05-14T08:39:09;4.20;;;3.72;;
67528;SDS011;54366;51.980;5.856;2023-05-14T08:41:42;4.97;;;4.25;;
67528;SDS011;54366;51.980;5.856;2023-05-14T08:44:12;4.75;;;3.80;;
67528;SDS011;54366;51.980;5.856;2023-05-14T08:46:54;4.75;;;3.85;;
67528;SDS011;54366;51.980;5.856;2023-05-14T08:49:39;3.47;;;3.03;;
67528;SDS011;54366;51.980;5.856;2023-05-14T08:52:18;5.90;;;3.85;;
67528;SDS011;54366;51.980;5.856;2023-05-14T08:54:47;3.67;;;2.95;;
67528;SDS011;54366;51.980;5.856;2023-05-14T08:57:22;4.38;;;2.67;;
67528;SDS011;54366;51.980;5.856;2023-05-14T08:59:58;3.22;;;2.90;;
67528;SDS011;54366;51.980;5.856;2023-05-14T09:02:31;4.28;;;3.10;;
67528;SDS011;54366;51.980;5.856;2023-05-14T09:05:04;3.60;;;3.30;;
67528;SDS011;54366;51.980;5.856;2023-05-14T09:07:38;2.80;;;2.60;;
67528;SDS011;54366;51.980;5.856;2023-05-14T09:10:11;3.63;;;2.78;;
67528;SDS011;54366;51.980;5.856;2023-05-14T09:12:44;2.80;;;2.60;;
67528;SDS011;54366;51.980;5.856;2023-05-14T09:15:10;3.28;;;2.90;;
67528;SDS011;54366;51.980;5.856;2023-05-14T09:17:49;4.57;;;3.13;;
67528;SDS011;54366;51.980;5.856;2023-05-14T09:20:22;3.35;;;2.80;;
67528;SDS011;54366;51.980;5.856;2023-05-14T09:23:03;3.58;;;3.03;;
67528;SDS011;54366;51.980;5.856;2023-05-14T09:25:32;5.05;;;3.55;;
67528;SDS011;54366;51.980;5.856;2023-05-14T09:28:05;4.47;;;3.20;;
67528;SDS011;54366;51.980;5.856;2023-05-14T09:30:40;3.78;;;3.00;;
67528;SDS011;54366;51.980;5.856;2023-05-14T09:33:13;3.05;;;2.83;;
67528;SDS011;54366;51.980;5.856;2023-05-14T09:35:58;3.92;;;2.42;;
67528;SDS011;54366;51.980;5.856;2023-05-14T09:38:28;2.78;;;2.40;;
67528;SDS011;54366;51.980;5.856;2023-05-14T09:41:05;3.25;;;2.95;;
67528;SDS011;54366;51.980;5.856;2023-05-14T09:43:38;4.47;;;3.03;;
67528;SDS011;54366;51.980;5.856;2023-05-14T09:46:11;4.95;;;3.15;;
67528;SDS011;54366;51.980;5.856;2023-05-14T09:48:37;3.15;;;2.58;;
67528;SDS011;54366;51.980;5.856;2023-05-14T09:51:10;3.05;;;2.60;;
67528;SDS011;54366;51.980;5.856;2023-05-14T09:53:37;4.72;;;3.17;;
67528;SDS011;54366;51.980;5.856;2023-05-14T09:56:11;2.75;;;2.40;;
67528;SDS011;54366;51.980;5.856;2023-05-14T09:58:44;3.05;;;2.85;;
67528;SDS011;54366;51.980;5.856;2023-05-14T10:01:17;3.40;;;2.93;;
67528;SDS011;54366;51.980;5.856;2023-05-14T10:03:45;2.90;;;2.70;;
67528;SDS011;54366;51.980;5.856;2023-05-14T10:06:18;3.55;;;2.90;;
67528;SDS011;54366;51.980;5.856;2023-05-14T10:08:55;2.92;;;2.63;;
67528;SDS011;54366;51.980;5.856;2023-05-14T10:11:32;5.78;;;3.42;;
67528;SDS011;54366;51.980;5.856;2023-05-14T10:14:10;3.38;;;3.08;;
67528;SDS011;54366;51.980;5.856;2023-05-14T10:16:50;3.47;;;2.90;;
67528;SDS011;54366;51.980;5.856;2023-05-14T10:19:32;3.45;;;2.28;;
67528;SDS011;54366;51.980;5.856;2023-05-14T10:22:08;2.38;;;2.17;;
67528;SDS011;54366;51.980;5.856;2023-05-14T10:24:44;3.33;;;2.88;;
67528;SDS011;54366;51.980;5.856;2023-05-14T10:27:21;2.65;;;2.45;;
67528;SDS011;54366;51.980;5.856;2023-05-14T10:29:55;3.15;;;2.85;;
67528;SDS011;54366;51.980;5.856;2023-05-14T10:32:22;3.17;;;2.85;;
67528;SDS011;54366;51.980;5.856;2023-05-14T10:34:57;2.67;;;2.47;;
67528;SDS011;54366;51.980;5.856;2023-05-14T10:37:33;2.75;;;2.50;;
67528;SDS011;54366;51.980;5.856;2023-05-14T10:40:06;2.70;;;2.50;;
67528;SDS011;54366;51.980;5.856;2023-05-14T10:42:35;2.75;;;2.55;;
67528;SDS011;54366;51.980;5.856;2023-05-14T10:45:14;2.67;;;2.20;;
67528;SDS011;54366;51.980;5.856;2023-05-14T10:47:41;2.40;;;1.73;;
67528;SDS011;54366;51.980;5.856;2023-05-14T10:50:15;2.40;;;2.20;;
67528;SDS011;54366;51.980;5.856;2023-05-14T10:52:49;2.00;;;1.75;;
67528;SDS011;54366;51.980;5.856;2023-05-14T10:55:16;2.10;;;1.90;;
67528;SDS011;54366;51.980;5.856;2023-05-14T10:57:50;2.55;;;1.80;;
67528;SDS011;54366;51.980;5.856;2023-05-14T11:02:57;2.42;;;1.90;;
67528;SDS011;54366;51.980;5.856;2023-05-14T11:05:24;4.03;;;1.80;;
67528;SDS011;54366;51.980;5.856;2023-05-14T11:07:59;3.58;;;2.08;;
67528;SDS011;54366;51.980;5.856;2023-05-14T11:10:28;1.95;;;1.75;;
67528;SDS011;54366;51.980;5.856;2023-05-14T11:13:02;2.13;;;1.92;;
67528;SDS011;54366;51.980;5.856;2023-05-14T11:15:35;1.90;;;1.80;;
67528;SDS011;54366;51.980;5.856;2023-05-14T11:18:03;2.30;;;2.10;;
67528;SDS011;54366;51.980;5.856;2023-05-14T11:20:37;2.03;;;1.75;;
67528;SDS011;54366;51.980;5.856;2023-05-14T11:23:17;2.47;;;1.83;;
67528;SDS011;54366;51.980;5.856;2023-05-14T11:25:50;2.20;;;1.60;;
67528;SDS011;54366;51.980;5.856;2023-05-14T11:28:25;2.25;;;2.05;;
67528;SDS011;54366;51.980;5.856;2023-05-14T11:30:52;1.83;;;1.70;;
67528;SDS011;54366;51.980;5.856;2023-05-14T11:33:26;2.20;;;1.70;;
67528;SDS011;54366;51.980;5.856;2023-05-14T11:35:59;2.95;;;2.13;;
67528;SDS011;54366;51.980;5.856;2023-05-14T11:38:25;2.08;;;1.80;;
67528;SDS011;54366;51.980;5.856;2023-05-14T11:40:58;2.17;;;1.98;;
67528;SDS011;54366;51.980;5.856;2023-05-14T11:43:31;2.40;;;2.20;;
67528;SDS011;54366;51.980;5.856;2023-05-14T11:46:08;3.35;;;2.10;;
67528;SDS011;54366;51.980;5.856;2023-05-14T11:48:49;3.22;;;2.10;;
67528;SDS011;54366;51.980;5.856;2023-05-14T11:51:15;2.30;;;2.10;;
67528;SDS011;54366;51.980;5.856;2023-05-14T11:53:48;3.35;;;2.30;;
67528;SDS011;54366;51.980;5.856;2023-05-14T11:56:21;2.65;;;1.85;;
67528;SDS011;54366;51.980;5.856;2023-05-14T11:58:54;2.30;;;1.87;;
67528;SDS011;54366;51.980;5.856;2023-05-14T12:01:29;2.65;;;1.90;;
67528;SDS011;54366;51.980;5.856;2023-05-14T12:04:08;2.13;;;1.80;;
67528;SDS011;54366;51.980;5.856;2023-05-14T12:06:41;2.55;;;2.22;;
67528;SDS011;54366;51.980;5.856;2023-05-14T12:09:17;2.03;;;1.90;;
67528;SDS011;54366;51.980;5.856;2023-05-14T12:11:51;2.40;;;2.20;;
67528;SDS011;54366;51.980;5.856;2023-05-14T12:14:21;2.75;;;2.30;;
67528;SDS011;54366;51.980;5.856;2023-05-14T12:16:55;5.68;;;2.45;;
67528;SDS011;54366;51.980;5.856;2023-05-14T12:19:34;3.55;;;2.72;;
67528;SDS011;54366;51.980;5.856;2023-05-14T12:22:16;1.75;;;1.65;;
67528;SDS011;54366;51.980;5.856;2023-05-14T12:24:53;2.97;;;2.30;;
67528;SDS011;54366;51.980;5.856;2023-05-14T12:27:31;2.10;;;1.90;;
67528;SDS011;54366;51.980;5.856;2023-05-14T12:30:05;2.15;;;1.95;;
67528;SDS011;54366;51.980;5.856;2023-05-14T12:32:32;2.40;;;2.20;;
67528;SDS011;54366;51.980;5.856;2023-05-14T12:35:06;2.53;;;1.95;;
67528;SDS011;54366;51.980;5.856;2023-05-14T12:37:39;4.20;;;2.20;;
67528;SDS011;54366;51.980;5.856;2023-05-14T12:40:13;4.63;;;2.88;;
67528;SDS011;54366;51.980;5.856;2023-05-14T12:42:46;5.50;;;3.50;;
67528;SDS011;54366;51.980;5.856;2023-05-14T12:45:12;4.32;;;2.50;;
67528;SDS011;54366;51.980;5.856;2023-05-14T12:47:45;3.10;;;2.80;;
67528;SDS011;54366;51.980;5.856;2023-05-14T12:50:18;2.87;;;2.40;;
67528;SDS011;54366;51.980;5.856;2023-05-14T12:52:51;2.97;;;2.67;;
67528;SDS011;54366;51.980;5.856;2023-05-14T12:55:24;4.13;;;2.63;;
67528;SDS011;54366;51.980;5.856;2023-05-14T12:57:57;2.92;;;2.72;;
67528;SDS011;54366;51.980;5.856;2023-05-14T13:00:23;4.03;;;3.10;;
67528;SDS011;54366;51.980;5.856;2023-05-14T13:02:56;3.05;;;2.75;;
67528;SDS011;54366;51.980;5.856;2023-05-14T13:05:22;3.45;;;2.70;;
67528;SDS011;54366;51.980;5.856;2023-05-14T13:07:57;3.88;;;2.85;;
67528;SDS011;54366;51.980;5.856;2023-05-14T13:10:31;2.97;;;2.30;;
67528;SDS011;54366;51.980;5.856;2023-05-14T13:13:04;3.55;;;2.35;;
67528;SDS011;54366;51.980;5.856;2023-05-14T13:15:37;3.20;;;2.57;;
67528;SDS011;54366;51.980;5.856;2023-05-14T13:18:03;3.53;;;2.70;;
67528;SDS011;54366;51.980;5.856;2023-05-14T13:20:36;5.05;;;3.67;;
67528;SDS011;54366;51.980;5.856;2023-05-14T13:23:16;3.47;;;2.55;;
67528;SDS011;54366;51.980;5.856;2023-05-14T13:25:49;3.17;;;2.28;;
67528;SDS011;54366;51.980;5.856;2023-05-14T13:28:15;2.78;;;2.30;;
67528;SDS011;54366;51.980;5.856;2023-05-14T13:31:10;2.03;;;1.90;;
67528;SDS011;54366;51.980;5.856;2023-05-14T13:33:42;2.88;;;2.28;;
67528;SDS011;54366;51.980;5.856;2023-05-14T13:36:10;4.72;;;3.00;;
67528;SDS011;54366;51.980;5.856;2023-05-14T13:38:45;2.58;;;2.38;;
67528;SDS011;54366;51.980;5.856;2023-05-14T13:41:18;3.40;;;2.30;;
67528;SDS011;54366;51.980;5.856;2023-05-14T13:43:51;2.30;;;2.10;;
67528;SDS011;54366;51.980;5.856;2023-05-14T13:46:24;2.10;;;1.73;;
67528;SDS011;54366;51.980;5.856;2023-05-14T13:48:50;2.53;;;1.83;;
67528;SDS011;54366;51.980;5.856;2023-05-14T13:51:23;3.05;;;2.10;;
67528;SDS011;54366;51.980;5.856;2023-05-14T13:53:56;2.00;;;1.80;;
67528;SDS011;54366;51.980;5.856;2023-05-14T13:56:29;4.00;;;1.93;;
67528;SDS011;54366;51.980;5.856;2023-05-14T13:59:02;2.27;;;1.80;;
67528;SDS011;54366;51.980;5.856;2023-05-14T14:01:35;3.60;;;2.40;;
67528;SDS011;54366;51.980;5.856;2023-05-14T14:04:08;2.30;;;2.10;;
67528;SDS011;54366;51.980;5.856;2023-05-14T14:06:42;2.42;;;1.65;;
67528;SDS011;54366;51.980;5.856;2023-05-14T14:09:15;3.10;;;2.00;;
67528;SDS011;54366;51.980;5.856;2023-05-14T14:11:41;2.58;;;1.88;;
67528;SDS011;54366;51.980;5.856;2023-05-14T14:14:14;2.72;;;2.10;;
67528;SDS011;54366;51.980;5.856;2023-05-14T14:16:47;4.87;;;2.00;;
67528;SDS011;54366;51.980;5.856;2023-05-14T14:19:26;3.00;;;2.33;;
67528;SDS011;54366;51.980;5.856;2023-05-14T14:21:59;3.80;;;2.42;;
67528;SDS011;54366;51.980;5.856;2023-05-14T14:24:32;2.33;;;1.90;;
67528;SDS011;54366;51.980;5.856;2023-05-14T14:27:06;3.95;;;2.40;;
67528;SDS011;54366;51.980;5.856;2023-05-14T14:29:39;4.35;;;2.35;;
67528;SDS011;54366;51.980;5.856;2023-05-14T14:32:12;4.30;;;2.17;;
67528;SDS011;54366;51.980;5.856;2023-05-14T14:34:45;4.53;;;2.47;;
67528;SDS011;54366;51.980;5.856;2023-05-14T14:37:18;5.03;;;2.63;;
67528;SDS011;54366;51.980;5.856;2023-05-14T14:39:51;6.00;;;2.50;;
67528;SDS011;54366;51.980;5.856;2023-05-14T14:42:24;4.77;;;2.70;;
67528;SDS011;54366;51.980;5.856;2023-05-14T14:44:57;3.37;;;2.40;;
67528;SDS011;54366;51.980;5.856;2023-05-14T14:47:30;2.70;;;2.37;;
67528;SDS011;54366;51.980;5.856;2023-05-14T14:49:56;2.50;;;2.30;;
67528;SDS011;54366;51.980;5.856;2023-05-14T14:52:30;3.15;;;2.60;;
67528;SDS011;54366;51.980;5.856;2023-05-14T14:54:56;3.88;;;2.38;;
67528;SDS011;54366;51.980;5.856;2023-05-14T14:57:29;4.57;;;3.33;;
67528;SDS011;54366;51.980;5.856;2023-05-14T15:00:02;6.17;;;3.10;;
67528;SDS011;54366;51.980;5.856;2023-05-14T15:02:35;3.83;;;2.77;;
67528;SDS011;54366;51.980;5.856;2023-05-14T15:05:13;2.55;;;2.30;;
67528;SDS011;54366;51.980;5.856;2023-05-14T15:07:39;5.68;;;2.83;;
67528;SDS011;54366;51.980;5.856;2023-05-14T15:10:12;4.13;;;2.92;;
67528;SDS011;54366;51.980;5.856;2023-05-14T15:12:45;6.20;;;3.37;;
67528;SDS011;54366;51.980;5.856;2023-05-14T15:15:18;5.45;;;2.95;;
67528;SDS011;54366;51.980;5.856;2023-05-14T15:17:52;6.57;;;3.28;;
67528;SDS011;54366;51.980;5.856;2023-05-14T15:20:25;4.47;;;3.70;;
67528;SDS011;54366;51.980;5.856;2023-05-14T15:23:05;4.45;;;2.42;;
67528;SDS011;54366;51.980;5.856;2023-05-14T15:25:31;6.20;;;3.10;;
67528;SDS011;54366;51.980;5.856;2023-05-14T15:28:04;4.68;;;3.00;;